Time;durP1;ratioP1;P1;durP2;ratioP2;P2;SDS_P1;SDS_P2;PMS_P1;PMS_P2;Temp;Humidity;BMP_temperature;BMP_pressure;BME280_temperature;BME280_humidity;BME280_pressure;Samples;Min_cycle;Max_cycle;Signal;HPM_P1;HPM_P2
2023/09/15 00:00:11;;;;;;;17.63;8.10;;;;;;;-141.97;48.27;47424.91;5033654;28;20656;-81
2023/09/15 00:02:36;;;;;;;17.37;8.30;;;;;;;-141.97;48.16;47619.03;5034377;28;20613;-79
2023/09/15 00:05:02;;;;;;;11.93;7.17;;;;;;;-141.97;47.08;47422.97;5034261;28;20173;-80
2023/09/15 00:07:27;;;;;;;12.87;7.27;;;;;;;-141.97;46.87;47365.31;5034217;28;20316;-80
2023/09/15 00:09:52;;;;;;;18.67;7.03;;;;;;;-141.97;46.47;47655.53;5051662;28;20263;-81
2023/09/15 00:12:18;;;;;;;14.77;6.73;;;;;;;-141.97;46.47;47434.50;5034158;28;20673;-80
2023/09/15 00:14:43;;;;;;;13.60;6.80;;;;;;;-141.97;46.62;47434.50;5051904;28;20268;-80
2023/09/15 00:17:08;;;;;;;14.57;6.37;;;;;;;-141.97;46.30;47438.34;5051749;28;20296;-79
2023/09/15 00:19:34;;;;;;;18.70;6.93;;;;;;;-141.97;46.04;47449.88;5051630;28;20185;-80
2023/09/15 00:22:01;;;;;;;15.63;6.50;;;;;;;-141.97;46.29;47449.88;5053079;28;20283;-79
2023/09/15 00:24:28;;;;;;;12.37;6.20;;;;;;;-141.97;46.18;47442.19;5054771;28;20225;-81
2023/09/15 00:26:53;;;;;;;14.70;6.60;;;;;;;-141.97;46.19;47422.97;5033790;28;20165;-80
2023/09/15 00:29:19;;;;;;;12.57;6.37;;;;;;;-141.97;46.30;47459.50;5033664;28;20641;-81
2023/09/15 00:31:45;;;;;;;11.57;6.37;;;;;;;-141.97;46.36;47305.75;5051800;28;20236;-81
2023/09/15 00:34:14;;;;;;;16.17;6.70;;;;;;;-141.97;46.26;47415.28;5041558;28;20525;-81
2023/09/15 00:36:39;;;;;;;13.43;6.40;;;;;;;-141.97;46.24;47442.19;5051065;28;20173;-81
2023/09/15 00:39:05;;;;;;;15.90;6.13;;;;;;;-141.97;45.90;47611.34;5051623;28;20234;-81
2023/09/15 00:41:30;;;;;;;20.57;6.97;;;;;;;-141.97;45.81;47447.97;5050896;28;20217;-81
2023/09/15 00:43:56;;;;;;;17.10;6.70;;;;;;;-141.97;45.24;47424.91;5051526;28;20169;-81
2023/09/15 00:46:22;;;;;;;12.40;5.90;;;;;;;-141.97;45.70;47444.13;5051207;28;20154;-81
2023/09/15 00:48:48;;;;;;;14.10;6.27;;;;;;;-141.97;45.32;47453.72;5052705;28;20162;-81
2023/09/15 00:51:14;;;;;;;12.30;5.90;;;;;;;-141.97;45.33;47436.44;5049351;28;20195;-81
2023/09/15 00:53:40;;;;;;;13.30;6.40;;;;;;;-141.97;44.71;47438.34;5071090;28;20176;-80
2023/09/15 00:56:08;;;;;;;16.67;6.00;;;;;;;-141.97;44.85;47446.03;5056570;28;20219;-80
2023/09/15 00:58:38;;;;;;;13.00;5.97;;;;;;;-141.97;44.36;47447.97;5051061;28;20180;-80
2023/09/15 01:01:06;;;;;;;13.33;5.80;;;;;;;-141.97;44.48;47434.50;5033046;28;20644;-80
2023/09/15 01:03:37;;;;;;;15.13;5.93;;;;;;;-141.97;44.44;47403.75;5051699;28;20226;-81
2023/09/15 01:06:03;;;;;;;15.13;5.70;;;;;;;-141.97;44.50;47663.22;5033750;28;20169;-80
2023/09/15 01:08:28;;;;;;;15.30;5.80;;;;;;;-141.97;44.63;47434.50;5033042;28;20208;-81
2023/09/15 01:10:54;;;;;;;16.77;6.30;;;;;;;-141.97;44.94;47461.41;5050720;28;20177;-80
2023/09/15 01:13:20;;;;;;;11.87;5.60;;;;;;;-141.97;44.52;47457.56;5050977;28;20253;-80
2023/09/15 01:16:00;;;;;;;12.03;5.90;;;;;;;-141.97;44.51;47396.06;5054402;28;20188;-80
2023/09/15 01:18:33;;;;;;;16.60;5.77;;;;;;;-141.97;43.79;47438.34;5034957;28;20235;-80
2023/09/15 01:21:24;;;;;;;12.27;5.60;;;;;;;-141.97;43.90;47476.78;5053499;28;20193;-80
2023/09/15 01:24:13;;;;;;;16.93;6.33;;;;;;;-141.97;43.52;47334.56;5033991;28;20189;-79
2023/09/15 01:26:51;;;;;;;14.87;7.17;;;;;;;-141.97;43.15;47465.25;5051394;28;20262;-81
2023/09/15 01:29:30;;;;;;;15.57;5.93;;;;;;;-141.97;43.33;47457.56;5060373;28;20181;-81
2023/09/15 01:31:57;;;;;;;15.87;6.20;;;;;;;-141.97;43.71;47409.53;5039271;28;20191;-79
2023/09/15 01:34:22;;;;;;;19.53;8.13;;;;;;;-141.97;43.84;47359.56;5023084;28;20328;-80
2023/09/15 01:36:47;;;;;;;14.77;6.37;;;;;;;-141.97;44.12;47426.81;5051024;28;20244;-80
2023/09/15 01:39:13;;;;;;;13.60;6.10;;;;;;;-141.97;44.23;47682.47;5050050;28;20231;-81
2023/09/15 01:41:38;;;;;;;17.70;7.57;;;;;;;-141.97;44.40;47459.50;5049615;28;20221;-80
2023/09/15 01:44:04;;;;;;;15.43;6.03;;;;;;;-141.97;44.53;47407.59;5050122;28;20187;-80
2023/09/15 01:46:29;;;;;;;16.27;6.53;;;;;;;-141.97;44.39;47449.88;5049793;28;20170;-80
2023/09/15 01:48:57;;;;;;;13.83;6.20;;;;;;;-141.97;44.41;47449.88;5050306;28;20161;-80
2023/09/15 01:51:23;;;;;;;12.63;5.80;;;;;;;-141.97;44.10;47465.25;5050203;28;20197;-79
2023/09/15 01:53:52;;;;;;;14.57;5.77;;;;;;;-141.97;43.64;47434.50;5050310;28;20169;-79
2023/09/15 01:56:18;;;;;;;15.03;5.97;;;;;;;-141.97;43.81;47438.34;5050072;28;20622;-80
2023/09/15 01:58:45;;;;;;;15.27;6.33;;;;;;;-141.97;43.50;47449.88;5054234;28;20173;-80
2023/09/15 02:01:11;;;;;;;18.17;5.93;;;;;;;-141.97;43.59;47492.16;5053996;28;20201;-80
2023/09/15 02:03:37;;;;;;;18.13;6.20;;;;;;;-141.97;43.79;47469.09;5054419;28;20176;-80
2023/09/15 02:06:04;;;;;;;13.17;6.10;;;;;;;-141.97;43.95;47438.34;5054250;28;20605;-81
2023/09/15 02:08:31;;;;;;;16.93;5.90;;;;;;;-141.97;43.59;47474.88;5053873;28;20165;-80
2023/09/15 02:10:56;;;;;;;15.93;6.63;;;;;;;-141.97;43.64;47457.56;5053516;28;20178;-80
2023/09/15 02:13:21;;;;;;;12.93;6.40;;;;;;;-141.97;43.67;47403.75;5036292;28;20251;-79
2023/09/15 02:15:47;;;;;;;18.87;6.50;;;;;;;-141.97;43.61;47469.09;5034572;28;20249;-80
2023/09/15 02:18:12;;;;;;;21.23;6.63;;;;;;;-141.97;43.87;47453.72;5034038;28;20552;-81
2023/09/15 02:20:38;;;;;;;15.40;6.37;;;;;;;-141.97;44.63;47394.16;5040429;28;20189;-81
2023/09/15 02:23:03;;;;;;;17.00;7.00;;;;;;;-141.97;45.20;47501.78;5053655;28;20239;-80
2023/09/15 02:25:34;;;;;;;18.57;7.07;;;;;;;-141.97;45.68;47434.50;5053566;28;20634;-80
2023/09/15 02:27:59;;;;;;;21.33;6.70;;;;;;;-141.97;45.65;47480.63;5035287;28;20268;-80
2023/09/15 02:30:25;;;;;;;20.93;7.23;;;;;;;-141.97;45.84;47613.25;5035425;28;20263;-81
2023/09/15 02:32:50;;;;;;;26.87;6.97;;;;;;;-141.97;46.36;47584.44;5045649;28;20161;-80
2023/09/15 02:35:15;;;;;;;18.50;8.57;;;;;;;-141.97;46.33;47457.56;5052857;28;20366;-81
2023/09/15 02:37:41;;;;;;;18.47;7.17;;;;;;;-141.97;46.79;47488.31;5035589;28;20161;-80
2023/09/15 02:40:07;;;;;;;19.27;7.10;;;;;;;-141.97;47.67;47474.88;5052709;28;20224;-80
2023/09/15 02:42:35;;;;;;;17.27;7.20;;;;;;;-141.97;47.36;47490.25;5053435;28;20161;-81
2023/09/15 02:45:01;;;;;;;26.63;7.47;;;;;;;-141.97;47.24;47321.13;5053199;28;20161;-80
2023/09/15 02:47:28;;;;;;;15.30;6.63;;;;;;;-141.97;47.09;47457.56;5053469;28;20276;-81
2023/09/15 02:49:54;;;;;;;21.93;7.13;;;;;;;-141.97;47.46;47463.34;5053332;28;20162;-80
2023/09/15 02:52:19;;;;;;;15.13;7.10;;;;;;;-141.97;47.49;47467.19;5035325;28;20180;-82
2023/09/15 02:54:47;;;;;;;19.30;6.80;;;;;;;-141.97;47.31;47438.34;5053669;28;20696;-80
2023/09/15 02:57:13;;;;;;;19.50;7.30;;;;;;;-141.97;47.06;47507.53;5053185;28;20181;-80
2023/09/15 02:59:38;;;;;;;16.87;7.03;;;;;;;-141.97;47.06;47469.09;5053634;28;20161;-81
2023/09/15 03:02:03;;;;;;;15.90;6.67;;;;;;;-141.97;47.89;47484.47;5053041;28;20220;-80
2023/09/15 03:04:29;;;;;;;19.20;7.50;;;;;;;-141.97;48.03;47488.31;5053098;28;20197;-81
2023/09/15 03:06:54;;;;;;;19.63;7.17;;;;;;;-141.97;48.66;47503.69;5053132;28;20240;-80
2023/09/15 03:09:20;;;;;;;19.60;6.67;;;;;;;-141.97;49.99;47480.63;5052574;28;20193;-80
2023/09/15 03:11:46;;;;;;;18.47;7.37;;;;;;;-141.97;50.05;47486.41;5052675;28;20175;-80
2023/09/15 03:14:12;;;;;;;15.77;6.77;;;;;;;-141.97;50.29;47476.78;5052866;28;20173;-80
2023/09/15 03:16:41;;;;;;;23.73;7.20;;;;;;;-141.97;50.86;47469.09;5052756;28;20177;-80
2023/09/15 03:19:06;;;;;;;19.17;7.43;;;;;;;-141.97;50.87;47474.88;5052925;28;20613;-79
2023/09/15 03:21:33;;;;;;;23.40;7.70;;;;;;;-141.97;51.11;47472.94;5052725;28;20231;-79
2023/09/15 03:24:00;;;;;;;19.00;7.23;;;;;;;-141.97;50.51;47507.53;5057366;28;20154;-79
2023/09/15 03:26:26;;;;;;;21.10;7.70;;;;;;;-141.97;50.63;47484.47;5067905;28;20225;-79
2023/09/15 03:28:51;;;;;;;26.90;8.00;;;;;;;-141.97;50.87;47672.84;5064221;28;20201;-78
2023/09/15 03:31:16;;;;;;;24.97;7.70;;;;;;;-141.97;50.83;47499.84;5058914;28;20566;-79
2023/09/15 03:33:42;;;;;;;31.70;8.53;;;;;;;-141.97;51.07;47492.16;5046261;28;20592;-79
2023/09/15 03:36:07;;;;;;;20.80;8.13;;;;;;;-141.97;51.58;47499.84;5053104;28;20916;-80
2023/09/15 03:38:33;;;;;;;35.03;10.07;;;;;;;-141.97;51.66;47517.16;5033875;28;20181;-79
2023/09/15 03:40:59;;;;;;;25.33;9.47;;;;;;;-141.97;52.43;47494.09;5051979;28;20237;-81
2023/09/15 03:43:24;;;;;;;24.57;8.90;;;;;;;-141.97;53.05;47515.22;5052749;28;20172;-80
2023/09/15 03:45:52;;;;;;;20.67;8.43;;;;;;;-141.97;53.87;47457.56;5052805;28;20246;-81
2023/09/15 03:48:17;;;;;;;22.97;8.97;;;;;;;-141.97;53.77;47480.63;5052610;28;20169;-81
2023/09/15 03:50:43;;;;;;;23.97;8.77;;;;;;;-141.97;53.98;47509.47;5052518;28;20176;-80
2023/09/15 03:53:09;;;;;;;21.07;8.27;;;;;;;-141.97;54.58;47490.25;5052534;28;20533;-81
2023/09/15 03:55:35;;;;;;;26.87;8.87;;;;;;;-141.97;54.56;47482.56;5052405;28;20617;-82
2023/09/15 03:58:02;;;;;;;24.47;8.77;;;;;;;-141.97;54.81;47492.16;5052533;28;20158;-81
2023/09/15 04:00:28;;;;;;;22.63;8.43;;;;;;;-141.97;55.00;47373.00;5052044;28;22043;-81
2023/09/15 04:02:54;;;;;;;20.13;8.13;;;;;;;-141.97;55.34;47476.78;5052712;28;20197;-81
2023/09/15 04:05:19;;;;;;;19.23;8.43;;;;;;;-141.97;55.14;47309.59;5034367;28;20282;-81
2023/09/15 04:07:45;;;;;;;26.87;9.03;;;;;;;-141.97;55.32;47492.16;5052005;28;20165;-81
2023/09/15 04:10:11;;;;;;;26.47;9.97;;;;;;;-141.97;55.83;47534.44;5051855;28;20162;-81
2023/09/15 04:12:37;;;;;;;31.67;9.60;;;;;;;-141.97;55.74;47486.41;5033842;28;20616;-80
2023/09/15 04:15:04;;;;;;;29.23;11.53;;;;;;;-141.97;55.92;47446.03;5053095;28;20256;-80
2023/09/15 04:17:30;;;;;;;29.80;9.90;;;;;;;-141.97;56.41;47480.63;5056940;28;20614;-80
2023/09/15 04:19:56;;;;;;;30.97;9.77;;;;;;;-141.97;56.90;47463.34;5052311;28;20173;-78
2023/09/15 04:22:21;;;;;;;21.43;8.83;;;;;;;-141.97;56.86;47296.13;5033323;28;20566;-80
2023/09/15 04:24:46;;;;;;;28.70;8.80;;;;;;;-141.97;57.49;47715.13;5033823;28;20218;-81
2023/09/15 04:27:12;;;;;;;22.87;8.97;;;;;;;-141.97;57.81;47413.38;5052876;28;20541;-82
2023/09/15 04:29:56;;;;;;;21.10;8.20;;;;;;;-141.97;58.01;47440.28;5034778;28;20176;-82
2023/09/15 04:32:22;;;;;;;21.77;8.17;;;;;;;-141.97;58.08;47471.03;5053443;28;20181;-83
2023/09/15 04:34:49;;;;;;;23.50;8.80;;;;;;;-141.97;58.50;47371.09;5042437;28;20298;-81
2023/09/15 04:37:14;;;;;;;26.07;8.10;;;;;;;-141.97;58.65;47446.03;5052189;28;20579;-82
2023/09/15 04:39:41;;;;;;;22.57;8.60;;;;;;;-141.97;59.31;47649.78;5052009;28;20318;-83
2023/09/15 04:42:06;;;;;;;51.00;11.63;;;;;;;-141.97;59.05;47492.16;5044827;28;20689;-83
2023/09/15 04:44:32;;;;;;;29.40;10.90;;;;;;;-141.97;58.67;47413.38;5058856;28;20186;-82
2023/09/15 04:46:57;;;;;;;29.03;9.90;;;;;;;-141.97;58.62;47396.06;5037080;28;20179;-81
2023/09/15 04:49:23;;;;;;;31.87;9.80;;;;;;;-141.97;58.72;47480.63;5037606;28;20172;-81
2023/09/15 04:51:48;;;;;;;21.70;9.17;;;;;;;-141.97;60.09;47553.69;5055514;28;20238;-82
2023/09/15 04:54:14;;;;;;;20.70;8.63;;;;;;;-141.97;60.92;47657.47;5037717;28;20578;-82
2023/09/15 04:56:40;;;;;;;22.67;8.97;;;;;;;-141.97;60.46;47480.63;5055849;28;20240;-81
2023/09/15 04:59:15;;;;;;;21.67;9.10;;;;;;;-141.97;60.34;47482.56;5051420;28;20169;-81
2023/09/15 05:01:44;;;;;;;24.50;8.93;;;;;;;-141.97;61.79;47430.66;5034170;28;20219;-82
2023/09/15 05:04:10;;;;;;;21.73;8.50;;;;;;;-141.97;62.17;47378.78;5033835;28;20227;-82
2023/09/15 05:06:36;;;;;;;19.03;8.17;;;;;;;-141.97;61.80;47499.84;5034252;28;20322;-83
2023/09/15 05:09:06;;;;;;;19.83;8.50;;;;;;;-141.97;61.47;47401.84;5034113;28;20177;-82
2023/09/15 05:11:31;;;;;;;22.13;8.63;;;;;;;-141.97;60.74;47434.50;5051465;28;20177;-81
2023/09/15 05:13:57;;;;;;;20.50;8.87;;;;;;;-141.97;60.38;47530.59;5052182;28;20165;-82
2023/09/15 05:16:23;;;;;;;19.40;8.60;;;;;;;-141.97;58.89;47446.03;5051812;28;20291;-82
2023/09/15 05:18:48;;;;;;;22.77;10.00;;;;;;;-141.97;57.86;47440.28;5051468;28;20496;-82
2023/09/15 05:21:14;;;;;;;22.07;10.80;;;;;;;-141.97;57.22;47451.81;5050856;28;20558;-81
2023/09/15 05:23:39;;;;;;;23.00;11.10;;;;;;;-141.97;56.58;47484.47;5051263;28;20181;-82
2023/09/15 05:26:05;;;;;;;23.03;12.50;;;;;;;-141.97;55.84;47440.28;5051256;28;20165;-81
2023/09/15 05:28:30;;;;;;;32.60;18.93;;;;;;;-141.97;55.76;47492.16;5050988;28;20168;-83
2023/09/15 05:30:59;;;;;;;130.67;81.30;;;;;;;-141.97;55.25;47490.25;5052558;28;20177;-82
2023/09/15 05:33:25;;;;;;;210.33;131.90;;;;;;;-141.97;54.75;47494.09;5056716;28;20616;-81
2023/09/15 05:35:58;;;;;;;204.27;122.63;;;;;;;-141.97;54.63;47392.22;5048864;28;20236;-82
2023/09/15 05:38:24;;;;;;;198.83;122.70;;;;;;;-141.97;54.81;47494.09;5057726;28;20165;-82
2023/09/15 05:40:50;;;;;;;140.83;78.13;;;;;;;-141.97;53.71;47432.59;5060316;28;20281;-81
2023/09/15 05:43:18;;;;;;;123.57;62.27;;;;;;;-141.97;53.73;47471.03;5055053;28;20190;-82
2023/09/15 05:45:44;;;;;;;65.70;38.13;;;;;;;-141.97;53.07;47501.78;5052400;28;20165;-82
2023/09/15 05:48:12;;;;;;;82.03;44.17;;;;;;;-141.97;53.95;47486.41;5033477;28;20173;-83
2023/09/15 05:50:40;;;;;;;29.07;15.63;;;;;;;-141.97;52.65;47676.69;5051155;28;20155;-82
2023/09/15 05:53:06;;;;;;;31.87;12.00;;;;;;;-141.97;51.87;47480.63;5051441;28;20552;-83
2023/09/15 05:55:32;;;;;;;21.57;9.53;;;;;;;-141.97;51.66;47469.09;5033797;28;20264;-81
2023/09/15 05:57:58;;;;;;;21.20;9.40;;;;;;;-141.97;51.30;47434.50;5051392;28;20746;-81
2023/09/15 06:00:23;;;;;;;19.00;9.20;;;;;;;-141.97;51.33;47496.00;5050807;28;20169;-83
2023/09/15 06:02:49;;;;;;;17.73;9.37;;;;;;;-141.97;51.04;47463.34;5051322;28;20181;-81
2023/09/15 06:05:17;;;;;;;19.67;11.80;;;;;;;-141.97;50.49;47482.56;5066191;28;20238;-82
2023/09/15 06:07:42;;;;;;;20.30;9.57;;;;;;;-141.97;51.50;47486.41;5071436;28;20221;-83
2023/09/15 06:10:08;;;;;;;20.43;10.00;;;;;;;-141.97;51.87;47288.44;5060269;28;20256;-81
2023/09/15 06:12:33;;;;;;;16.00;11.70;;;;;;;-141.97;52.39;47486.41;5053982;28;20248;-82
2023/09/15 06:14:59;;;;;;;21.20;9.50;;;;;;;-141.97;52.46;47482.56;5054069;28;20158;-81
2023/09/15 06:17:24;;;;;;;20.50;9.00;;;;;;;-141.97;52.23;47353.78;5052374;28;20170;-81
2023/09/15 06:19:51;;;;;;;18.97;8.40;;;;;;;-141.97;51.87;47459.50;5050363;28;20170;-80
2023/09/15 06:22:17;;;;;;;19.97;8.80;;;;;;;-141.97;50.96;47465.25;5049994;28;20215;-81
2023/09/15 06:24:42;;;;;;;22.17;9.93;;;;;;;-141.97;51.14;47384.53;5032039;28;20634;-81
2023/09/15 06:27:07;;;;;;;22.63;9.53;;;;;;;-141.97;51.25;47394.16;5032079;28;20189;-81
2023/09/15 06:29:33;;;;;;;19.00;9.17;;;;;;;-141.97;51.65;47615.19;5050716;28;20197;-81
2023/09/15 06:31:59;;;;;;;16.23;9.00;;;;;;;-141.97;51.39;47655.53;5050095;28;20563;-81
2023/09/15 06:34:24;;;;;;;23.80;9.57;;;;;;;-141.97;50.58;47463.34;5050131;28;20177;-82
2023/09/15 06:36:50;;;;;;;20.43;9.00;;;;;;;-141.97;50.30;47384.53;5022609;28;20695;-81
2023/09/15 06:39:16;;;;;;;20.10;9.23;;;;;;;-141.97;51.22;47484.47;5049998;28;20153;-81
2023/09/15 06:41:41;;;;;;;18.10;8.53;;;;;;;-141.97;50.80;47478.72;5050745;28;20244;-82
2023/09/15 06:44:09;;;;;;;20.80;8.97;;;;;;;-141.97;50.11;47365.31;5051753;28;20193;-82
2023/09/15 06:46:34;;;;;;;18.77;10.13;;;;;;;-141.97;49.55;47472.94;5036275;28;20858;-81
2023/09/15 06:49:00;;;;;;;23.27;10.57;;;;;;;-141.97;49.05;47665.16;5034644;28;20220;-81
2023/09/15 06:51:27;;;;;;;22.23;11.00;;;;;;;-141.97;49.47;47661.31;5040085;28;20193;-81
2023/09/15 06:53:52;;;;;;;20.17;11.50;;;;;;;-141.97;49.22;47615.19;5055010;28;20664;-82
2023/09/15 06:56:18;;;;;;;21.00;11.20;;;;;;;-141.97;50.54;47307.66;5058187;28;20189;-81
2023/09/15 06:58:43;;;;;;;23.40;11.53;;;;;;;-141.97;49.66;47284.59;5036499;28;20180;-84
2023/09/15 07:01:09;;;;;;;19.90;11.30;;;;;;;-141.97;49.94;47678.63;5054260;28;20216;-84
2023/09/15 07:03:34;;;;;;;21.43;11.10;;;;;;;-141.97;48.70;47446.03;5054979;28;20170;-82
2023/09/15 07:05:59;;;;;;;21.50;11.13;;;;;;;-141.97;48.70;47472.94;5035939;28;20177;-81
2023/09/15 07:08:25;;;;;;;19.50;10.87;;;;;;;-141.97;48.53;47340.34;5054433;28;20199;-82
2023/09/15 07:10:51;;;;;;;21.83;10.90;;;;;;;-141.97;48.93;47440.28;5054116;28;20174;-82
2023/09/15 07:13:17;;;;;;;18.30;10.70;;;;;;;-141.97;49.54;47422.97;5053245;28;20253;-81
2023/09/15 07:15:44;;;;;;;20.87;11.77;;;;;;;-141.97;49.73;47461.41;5053894;28;20157;-81
2023/09/15 07:18:10;;;;;;;19.87;11.37;;;;;;;-141.97;49.46;47421.06;5053969;28;20173;-81
2023/09/15 07:20:35;;;;;;;22.37;10.90;;;;;;;-141.97;49.47;47472.94;5035949;28;20207;-81
2023/09/15 07:23:01;;;;;;;17.00;10.53;;;;;;;-141.97;49.44;47490.25;5052947;28;20176;-81
2023/09/15 07:25:26;;;;;;;20.10;11.27;;;;;;;-141.97;48.84;47430.66;5053223;28;20196;-81
2023/09/15 07:27:52;;;;;;;21.23;10.93;;;;;;;-141.97;48.57;47669.00;5035680;28;20644;-81
2023/09/15 07:30:17;;;;;;;24.77;11.40;;;;;;;-141.97;47.87;47467.19;5053747;28;20173;-81
2023/09/15 07:32:43;;;;;;;18.70;11.17;;;;;;;-141.97;46.40;47349.94;5053272;28;20178;-82
2023/09/15 07:35:12;;;;;;;20.80;11.03;;;;;;;-141.97;45.49;47417.22;5043304;28;20312;-82
2023/09/15 07:37:38;;;;;;;22.07;11.53;;;;;;;-141.97;45.59;47430.66;5052595;28;20540;-82
2023/09/15 07:40:07;;;;;;;19.83;10.90;;;;;;;-141.97;45.28;47380.69;5052651;28;20217;-80
2023/09/15 07:42:33;;;;;;;16.00;10.60;;;;;;;-141.97;43.86;47417.22;5055315;28;20193;-81
2023/09/15 07:44:58;;;;;;;17.97;10.57;;;;;;;-141.97;43.86;47353.78;5059366;28;20615;-81
2023/09/15 07:47:24;;;;;;;17.70;10.80;;;;;;;-141.97;43.52;47421.06;5057360;28;20162;-82
2023/09/15 07:49:53;;;;;;;17.63;9.90;;;;;;;-141.97;43.64;47428.75;5063910;28;20188;-81
2023/09/15 07:52:18;;;;;;;17.10;10.10;;;;;;;-141.97;43.53;47455.66;5042878;28;20176;-81
2023/09/15 07:54:45;;;;;;;18.33;10.67;;;;;;;-141.97;43.12;47415.28;5053288;28;20554;-82
2023/09/15 07:57:10;;;;;;;16.02;9.73;;;;;;;-141.97;42.28;47415.28;5052507;28;20172;-82
2023/09/15 07:59:36;;;;;;;17.45;9.85;;;;;;;-141.97;42.17;47394.16;5052651;28;20177;-81
2023/09/15 08:02:04;;;;;;;14.98;9.80;;;;;;;-141.97;40.69;47407.59;5051888;28;20583;-81
2023/09/15 08:04:29;;;;;;;20.27;10.25;;;;;;;-141.97;41.48;47411.44;5052564;28;20239;-81
2023/09/15 08:06:55;;;;;;;16.90;10.32;;;;;;;-141.97;40.52;47415.28;5034893;28;20328;-81
2023/09/15 08:09:20;;;;;;;18.67;11.07;;;;;;;-141.97;39.74;47507.53;5052761;28;21070;-81
2023/09/15 08:11:45;;;;;;;15.95;9.93;;;;;;;-141.97;39.04;47405.69;5051981;28;20169;-81
2023/09/15 08:14:11;;;;;;;17.58;9.50;;;;;;;-141.97;38.00;47405.69;5052284;28;20260;-82
2023/09/15 08:16:36;;;;;;;15.77;9.52;;;;;;;-141.97;37.82;47324.97;5052398;28;20258;-81
2023/09/15 08:19:02;;;;;;;19.75;9.73;;;;;;;-141.97;37.57;47561.38;5034264;28;20645;-82
2023/09/15 08:21:28;;;;;;;20.80;9.70;;;;;;;-141.97;36.73;47398.00;5053219;28;20258;-82
2023/09/15 08:23:54;;;;;;;16.45;9.77;;;;;;;-141.97;36.85;47421.06;5054484;28;20194;-81
2023/09/15 08:26:19;;;;;;;15.18;9.63;;;;;;;-141.97;36.85;47373.00;5060253;28;20201;-82
2023/09/15 08:28:46;;;;;;;15.32;9.55;;;;;;;-141.97;35.86;47276.91;5054558;28;20230;-82
2023/09/15 08:31:11;;;;;;;16.48;10.15;;;;;;;-141.97;35.90;47315.34;5034586;28;20621;-83
2023/09/15 08:33:36;;;;;;;20.30;9.77;;;;;;;-141.97;36.49;47292.28;5052274;28;20176;-82
2023/09/15 08:36:03;;;;;;;17.77;9.95;;;;;;;-141.97;36.60;47382.63;5042276;28;20242;-83
2023/09/15 08:38:31;;;;;;;19.75;10.25;;;;;;;-141.97;36.46;47388.38;5034274;28;20559;-82
2023/09/15 08:41:04;;;;;;;23.63;10.55;;;;;;;-141.97;35.60;47323.03;5056148;28;20771;-81
2023/09/15 08:43:32;;;;;;;15.82;10.05;;;;;;;-141.97;35.14;47269.22;5068477;28;20175;-83
2023/09/15 08:45:58;;;;;;;16.35;9.75;;;;;;;-141.97;34.71;47261.53;5065908;28;20172;-83
2023/09/15 08:48:27;;;;;;;14.02;9.18;;;;;;;-141.97;35.26;47288.44;5051727;28;20263;-82
2023/09/15 08:50:54;;;;;;;17.52;9.52;;;;;;;-141.97;34.43;47100.09;5050241;28;20161;-82
2023/09/15 08:53:21;;;;;;;17.20;9.60;;;;;;;-141.97;34.25;47611.34;5051061;28;20781;-82
2023/09/15 08:55:47;;;;;;;18.80;9.85;;;;;;;-141.97;33.99;47315.34;5057573;28;20168;-82
2023/09/15 08:58:12;;;;;;;16.67;9.95;;;;;;;-141.97;33.52;47184.66;5065400;28;20261;-83
2023/09/15 09:00:38;;;;;;;21.15;10.38;;;;;;;-141.97;33.46;47251.94;5065881;28;20189;-82
2023/09/15 09:03:04;;;;;;;22.02;9.70;;;;;;;-141.97;33.29;47584.44;5044429;28;20183;-82
2023/09/15 09:05:31;;;;;;;15.98;8.82;;;;;;;-141.97;33.17;47288.44;5063312;28;20192;-81
2023/09/15 09:07:59;;;;;;;17.55;9.27;;;;;;;-141.97;32.67;47321.13;5060132;28;20643;-82
2023/09/15 09:10:25;;;;;;;15.98;9.32;;;;;;;-141.97;33.70;47338.41;5056481;28;20168;-82
2023/09/15 09:12:51;;;;;;;18.77;8.88;;;;;;;-141.97;33.99;47349.94;5058066;28;20175;-81
2023/09/15 09:15:17;;;;;;;15.90;9.27;;;;;;;-141.97;33.70;47346.09;5060732;28;20175;-84
2023/09/15 09:17:43;;;;;;;19.58;9.52;;;;;;;-141.97;32.41;47342.25;5042480;28;20820;-82
2023/09/15 09:20:23;;;;;;;15.23;9.45;;;;;;;-141.97;31.69;47509.47;5059226;28;20228;-82
2023/09/15 09:22:48;;;;;;;15.65;9.55;;;;;;;-141.97;32.28;47286.53;5060372;28;20179;-84
2023/09/15 09:25:14;;;;;;;15.35;9.38;;;;;;;-141.97;32.19;47307.66;5062129;28;20515;-82
2023/09/15 09:27:39;;;;;;;19.00;9.77;;;;;;;-141.97;32.18;47307.66;5063760;28;20177;-83
2023/09/15 09:30:05;;;;;;;16.13;9.90;;;;;;;-141.97;31.61;47276.91;5060608;28;20169;-83
2023/09/15 09:32:30;;;;;;;17.05;10.23;;;;;;;-141.97;31.55;47275.00;5059213;28;20265;-83
2023/09/15 09:34:56;;;;;;;16.20;9.43;;;;;;;-141.97;31.21;47263.47;5054446;28;20212;-82
2023/09/15 09:37:26;;;;;;;18.73;9.90;;;;;;;-141.97;31.12;47257.69;5062972;28;20173;-82
2023/09/15 09:39:53;;;;;;;17.15;9.60;;;;;;;-141.97;31.11;47250.00;5062658;28;20232;-82
2023/09/15 09:42:21;;;;;;;15.77;9.43;;;;;;;-141.97;31.53;47271.16;5063147;28;20531;-83
2023/09/15 09:44:47;;;;;;;20.58;10.70;;;;;;;-141.97;31.73;47417.22;5067342;28;20192;-83
2023/09/15 09:47:12;;;;;;;14.43;9.35;;;;;;;-141.97;31.19;47261.53;5063456;28;20624;-83
2023/09/15 09:49:39;;;;;;;17.77;9.75;;;;;;;-141.97;31.41;47284.59;5060909;28;20165;-83
2023/09/15 09:52:05;;;;;;;16.70;10.25;;;;;;;-141.97;31.29;47572.91;5057949;28;20203;-83
2023/09/15 09:54:31;;;;;;;16.70;10.27;;;;;;;-141.97;32.05;47261.53;5058993;28;20201;-83
2023/09/15 09:56:57;;;;;;;14.25;10.05;;;;;;;-141.97;32.28;47294.22;5058457;28;20241;-83
2023/09/15 09:59:22;;;;;;;16.48;10.55;;;;;;;-141.97;32.07;47326.88;5057092;28;20197;-81
2023/09/15 10:01:48;;;;;;;16.45;11.10;;;;;;;-141.97;32.74;47319.19;5056582;28;20185;-82
2023/09/15 10:04:14;;;;;;;16.63;10.38;;;;;;;-141.97;32.76;47280.75;5062737;28;20238;-84
2023/09/15 10:06:39;;;;;;;17.23;10.18;;;;;;;-141.97;32.98;47134.69;5059124;28;20176;-83
2023/09/15 10:09:06;;;;;;;18.20;10.30;;;;;;;-141.97;32.46;47298.06;5060027;28;20622;-85
2023/09/15 10:11:35;;;;;;;18.45;10.73;;;;;;;-141.97;31.90;47250.00;5059810;28;20165;-82
2023/09/15 10:14:02;;;;;;;18.58;10.13;;;;;;;-141.97;31.92;47269.22;5063166;28;20176;-83
2023/09/15 10:16:30;;;;;;;17.15;10.48;;;;;;;-141.97;32.34;47144.31;5061503;28;20173;-83
2023/09/15 10:18:57;;;;;;;15.80;10.18;;;;;;;-141.97;32.23;47290.38;5046202;28;20240;-83
2023/09/15 10:21:23;;;;;;;20.10;10.25;;;;;;;-141.97;31.53;47315.34;5070328;28;20185;-83
2023/09/15 10:23:48;;;;;;;19.15;9.73;;;;;;;-141.97;31.79;47496.00;5069873;28;20237;-83
2023/09/15 10:26:14;;;;;;;14.65;9.60;;;;;;;-141.97;31.85;47115.47;5071894;28;20176;-83
2023/09/15 10:28:45;;;;;;;20.55;9.85;;;;;;;-141.97;31.81;47088.56;5048489;28;20555;-84
2023/09/15 10:31:11;;;;;;;13.57;9.23;;;;;;;-141.97;32.19;47326.88;5055595;28;20176;-83
2023/09/15 10:33:39;;;;;;;15.45;9.65;;;;;;;-141.97;32.47;47326.88;5055420;28;20291;-83
2023/09/15 10:36:05;;;;;;;14.20;10.07;;;;;;;-141.97;31.70;47136.63;5051711;28;20241;-83
2023/09/15 10:38:34;;;;;;;14.27;9.80;;;;;;;-141.97;31.58;47273.06;5040872;28;20526;-84
2023/09/15 10:41:03;;;;;;;12.35;9.75;;;;;;;-141.97;31.18;47278.84;5056407;28;20235;-84
2023/09/15 10:43:28;;;;;;;16.55;10.23;;;;;;;-141.97;31.24;47251.94;5049311;28;20220;-82
2023/09/15 10:46:02;;;;;;;16.50;10.30;;;;;;;-141.97;31.24;47282.69;5057485;28;20241;-84
2023/09/15 10:48:36;;;;;;;12.95;9.45;;;;;;;-141.97;31.17;47292.28;5055683;28;20161;-85
2023/09/15 10:51:09;;;;;;;16.85;10.18;;;;;;;-141.97;31.66;47336.50;5055767;28;20161;-83
2023/09/15 10:53:48;;;;;;;16.95;9.70;;;;;;;-141.97;31.85;47265.38;5055650;28;20269;-84
2023/09/15 10:56:15;;;;;;;14.38;9.77;;;;;;;-141.97;31.06;47284.59;5062871;28;20599;-84
2023/09/15 10:58:41;;;;;;;14.18;9.57;;;;;;;-141.97;31.85;47144.31;5063979;28;20248;-84
2023/09/15 11:01:09;;;;;;;13.52;9.57;;;;;;;-141.97;31.64;47259.63;5064293;28;20185;-83
2023/09/15 11:03:36;;;;;;;16.15;10.00;;;;;;;-141.97;32.24;47286.53;5073472;28;20165;-84